sensor_id;sensor_type;location;lat;lon;timestamp;pressure;altitude;pressure_sealevel;temperature;humidity
6393;BME280;3229;42.674;23.282;2023-06-26T00:02:36;94470.53;;;21.39;96.43
6393;BME280;3229;42.674;23.282;2023-06-26T00:05:04;94470.94;;;21.36;96.59
6393;BME280;3229;42.674;23.282;2023-06-26T00:07:31;94441.81;;;21.21;96.83
6393;BME280;3229;42.674;23.282;2023-06-26T00:09:59;94465.53;;;21.38;96.78
6393;BME280;3229;42.674;23.282;2023-06-26T00:12:26;94467.53;;;21.36;96.90
6393;BME280;3229;42.674;23.282;2023-06-26T00:14:54;94469.75;;;21.32;96.91
6393;BME280;3229;42.674;23.282;2023-06-26T00:17:21;94468.56;;;21.35;96.80
6393;BME280;3229;42.674;23.282;2023-06-26T00:19:48;94469.75;;;21.32;96.43
6393;BME280;3229;42.674;23.282;2023-06-26T00:22:15;94471.56;;;21.32;96.80
6393;BME280;3229;42.674;23.282;2023-06-26T00:24:41;94461.19;;;21.25;96.67
6393;BME280;3229;42.674;23.282;2023-06-26T00:27:10;94461.97;;;21.25;97.05
6393;BME280;3229;42.674;23.282;2023-06-26T00:29:37;94462.38;;;21.22;97.58
6393;BME280;3229;42.674;23.282;2023-06-26T00:32:06;94426.31;;;21.01;97.91
6393;BME280;3229;42.674;23.282;2023-06-26T00:34:33;94462.59;;;21.21;97.90
6393;BME280;3229;42.674;23.282;2023-06-26T00:37:00;94460.81;;;21.21;97.95
6393;BME280;3229;42.674;23.282;2023-06-26T00:39:26;94456.00;;;21.18;97.47
6393;BME280;3229;42.674;23.282;2023-06-26T00:41:53;94465.03;;;21.16;97.70
6393;BME280;3229;42.674;23.282;2023-06-26T00:44:20;94452.22;;;21.14;97.51
6393;BME280;3229;42.674;23.282;2023-06-26T00:46:47;94427.34;;;20.93;97.94
6393;BME280;3229;42.674;23.282;2023-06-26T00:49:15;94456.84;;;21.12;97.74
6393;BME280;3229;42.674;23.282;2023-06-26T00:51:43;94456.47;;;21.09;98.12
6393;BME280;3229;42.674;23.282;2023-06-26T00:54:10;94446.06;;;21.09;97.75
6393;BME280;3229;42.674;23.282;2023-06-26T00:56:37;94445.84;;;21.10;98.13
6393;BME280;3229;42.674;23.282;2023-06-26T00:59:04;94444.84;;;21.11;97.83
6393;BME280;3229;42.674;23.282;2023-06-26T01:01:30;94446.06;;;21.09;97.95
6393;BME280;3229;42.674;23.282;2023-06-26T01:03:57;94439.47;;;21.06;98.05
6393;BME280;3229;42.674;23.282;2023-06-26T01:06:27;94440.25;;;21.07;98.20
6393;BME280;3229;42.674;23.282;2023-06-26T01:08:57;94434.50;;;21.04;97.91
6393;BME280;3229;42.674;23.282;2023-06-26T01:11:24;94436.06;;;21.05;98.27
6393;BME280;3229;42.674;23.282;2023-06-26T01:13:51;94425.47;;;21.07;97.96
6393;BME280;3229;42.674;23.282;2023-06-26T01:16:20;94430.88;;;21.05;98.09
6393;BME280;3229;42.674;23.282;2023-06-26T01:18:47;94413.53;;;20.93;98.34
6393;BME280;3229;42.674;23.282;2023-06-26T01:21:15;94420.53;;;20.92;98.66
6393;BME280;3229;42.674;23.282;2023-06-26T01:23:57;94415.56;;;20.91;98.57
6393;BME280;3229;42.674;23.282;2023-06-26T01:26:29;94360.78;;;20.47;98.67
6393;BME280;3229;42.674;23.282;2023-06-26T01:28:58;94424.41;;;20.76;98.98
6393;BME280;3229;42.674;23.282;2023-06-26T01:31:27;94397.75;;;20.56;99.43
6393;BME280;3229;42.674;23.282;2023-06-26T01:33:56;94418.06;;;20.66;99.92
6393;BME280;3229;42.674;23.282;2023-06-26T01:36:24;94406.91;;;20.59;99.97
6393;BME280;3229;42.674;23.282;2023-06-26T01:38:50;94412.09;;;20.59;100.00
6393;BME280;3229;42.674;23.282;2023-06-26T01:41:18;94412.53;;;20.56;100.00
6393;BME280;3229;42.674;23.282;2023-06-26T01:43:57;94413.31;;;20.56;100.00
6393;BME280;3229;42.674;23.282;2023-06-26T01:46:42;94413.50;;;20.54;99.94
6393;BME280;3229;42.674;23.282;2023-06-26T01:49:20;94415.53;;;20.52;99.98
6393;BME280;3229;42.674;23.282;2023-06-26T01:51:55;94406.72;;;20.53;99.83
6393;BME280;3229;42.674;23.282;2023-06-26T01:54:25;94409.94;;;20.56;99.61
6393;BME280;3229;42.674;23.282;2023-06-26T01:56:57;94399.53;;;20.56;100.00
6393;BME280;3229;42.674;23.282;2023-06-26T01:59:28;94407.69;;;20.59;99.73
6393;BME280;3229;42.674;23.282;2023-06-26T02:02:00;94408.88;;;20.63;99.26
6393;BME280;3229;42.674;23.282;2023-06-26T02:04:27;94410.50;;;20.58;99.18
6393;BME280;3229;42.674;23.282;2023-06-26T02:06:55;94403.91;;;20.55;99.08
6393;BME280;3229;42.674;23.282;2023-06-26T02:09:22;94403.34;;;20.53;99.19
6393;BME280;3229;42.674;23.282;2023-06-26T02:11:49;94400.16;;;20.51;99.24
6393;BME280;3229;42.674;23.282;2023-06-26T02:14:15;94404.94;;;20.47;98.83
6393;BME280;3229;42.674;23.282;2023-06-26T02:16:43;94402.16;;;20.42;99.03
6393;BME280;3229;42.674;23.282;2023-06-26T02:19:10;94393.19;;;20.38;99.07
6393;BME280;3229;42.674;23.282;2023-06-26T02:21:37;94407.38;;;20.36;99.14
6393;BME280;3229;42.674;23.282;2023-06-26T02:24:05;94397.38;;;20.33;99.40
6393;BME280;3229;42.674;23.282;2023-06-26T02:26:31;94398.59;;;20.30;99.20
6393;BME280;3229;42.674;23.282;2023-06-26T02:28:58;94402.00;;;20.30;99.22
6393;BME280;3229;42.674;23.282;2023-06-26T02:31:25;94407.97;;;20.31;99.26
6393;BME280;3229;42.674;23.282;2023-06-26T02:33:53;94405.00;;;20.27;99.50
6393;BME280;3229;42.674;23.282;2023-06-26T02:36:20;94409.38;;;20.27;99.64
6393;BME280;3229;42.674;23.282;2023-06-26T02:38:47;94403.00;;;20.23;99.84
6393;BME280;3229;42.674;23.282;2023-06-26T02:41:14;94411.59;;;20.23;99.85
6393;BME280;3229;42.674;23.282;2023-06-26T02:43:41;94406.00;;;20.26;99.95
6393;BME280;3229;42.674;23.282;2023-06-26T02:46:08;94407.00;;;20.25;99.83
6393;BME280;3229;42.674;23.282;2023-06-26T02:48:34;94405.38;;;20.24;99.75
6393;BME280;3229;42.674;23.282;2023-06-26T02:51:03;94415.78;;;20.24;99.97
6393;BME280;3229;42.674;23.282;2023-06-26T02:53:30;94410.59;;;20.24;100.00
6393;BME280;3229;42.674;23.282;2023-06-26T02:55:57;94414.59;;;20.27;99.67
6393;BME280;3229;42.674;23.282;2023-06-26T02:58:24;94402.44;;;20.21;99.91
6393;BME280;3229;42.674;23.282;2023-06-26T03:00:51;94409.22;;;20.22;100.00
6393;BME280;3229;42.674;23.282;2023-06-26T03:03:19;94406.78;;;20.20;99.81
6393;BME280;3229;42.674;23.282;2023-06-26T03:05:45;94389.88;;;20.04;99.63
6393;BME280;3229;42.674;23.282;2023-06-26T03:08:14;94407.41;;;20.16;99.53
6393;BME280;3229;42.674;23.282;2023-06-26T03:10:41;94414.22;;;20.17;99.39
6393;BME280;3229;42.674;23.282;2023-06-26T03:13:08;94417.00;;;20.15;99.56
6393;BME280;3229;42.674;23.282;2023-06-26T03:15:35;94420.59;;;20.14;99.69
6393;BME280;3229;42.674;23.282;2023-06-26T03:18:02;94412.25;;;20.12;99.71
6393;BME280;3229;42.674;23.282;2023-06-26T03:20:28;94417.44;;;20.12;99.44
6393;BME280;3229;42.674;23.282;2023-06-26T03:22:55;94417.22;;;20.14;99.28
6393;BME280;3229;42.674;23.282;2023-06-26T03:25:23;94417.00;;;20.15;99.15
6393;BME280;3229;42.674;23.282;2023-06-26T03:27:53;94412.41;;;20.17;99.32
6393;BME280;3229;42.674;23.282;2023-06-26T03:30:20;94416.59;;;20.18;99.08
6393;BME280;3229;42.674;23.282;2023-06-26T03:32:47;94412.00;;;20.20;99.18
6393;BME280;3229;42.674;23.282;2023-06-26T03:35:14;94429.97;;;20.22;99.13
6393;BME280;3229;42.674;23.282;2023-06-26T03:37:40;94407.41;;;20.16;98.86
6393;BME280;3229;42.674;23.282;2023-06-26T03:40:09;94417.97;;;20.34;98.62
6393;BME280;3229;42.674;23.282;2023-06-26T03:42:37;94399.78;;;20.27;98.05
6393;BME280;3229;42.674;23.282;2023-06-26T03:45:05;94418.16;;;20.33;98.52
6393;BME280;3229;42.674;23.282;2023-06-26T03:47:32;94418.56;;;20.36;98.67
6393;BME280;3229;42.674;23.282;2023-06-26T03:49:58;94419.16;;;20.38;98.43
6393;BME280;3229;42.674;23.282;2023-06-26T03:52:25;94422.13;;;20.42;98.42
6393;BME280;3229;42.674;23.282;2023-06-26T03:54:52;94414.72;;;20.45;98.00
6393;BME280;3229;42.674;23.282;2023-06-26T03:57:19;94417.13;;;20.47;97.95
6393;BME280;3229;42.674;23.282;2023-06-26T03:59:47;94421.75;;;20.51;97.80
6393;BME280;3229;42.674;23.282;2023-06-26T04:02:14;94419.09;;;20.58;97.69
6393;BME280;3229;42.674;23.282;2023-06-26T04:04:41;94420.69;;;20.66;97.47
6393;BME280;3229;42.674;23.282;2023-06-26T04:07:07;94419.59;;;20.80;96.50
6393;BME280;3229;42.674;23.282;2023-06-26T04:09:34;94414.78;;;20.90;96.25
6393;BME280;3229;42.674;23.282;2023-06-26T04:12:02;94413.91;;;21.03;95.50
6393;BME280;3229;42.674;23.282;2023-06-26T04:14:28;94420.00;;;21.15;94.65
6393;BME280;3229;42.674;23.282;2023-06-26T04:16:57;94419.34;;;21.26;94.00
6393;BME280;3229;42.674;23.282;2023-06-26T04:19:25;94418.16;;;21.29;93.48
6393;BME280;3229;42.674;23.282;2023-06-26T04:21:52;94415.91;;;21.39;93.07
6393;BME280;3229;42.674;23.282;2023-06-26T04:24:19;94420.47;;;21.44;92.23
6393;BME280;3229;42.674;23.282;2023-06-26T04:26:46;94428.28;;;21.69;91.60
6393;BME280;3229;42.674;23.282;2023-06-26T04:29:12;94338.72;;;21.33;90.33
6393;BME280;3229;42.674;23.282;2023-06-26T04:31:39;94431.22;;;22.22;89.01
6393;BME280;3229;42.674;23.282;2023-06-26T04:34:08;94426.75;;;22.48;87.69
6393;BME280;3229;42.674;23.282;2023-06-26T04:36:35;94427.97;;;22.64;87.05
6393;BME280;3229;42.674;23.282;2023-06-26T04:39:04;94436.38;;;22.84;85.51
6393;BME280;3229;42.674;23.282;2023-06-26T04:41:31;94430.84;;;22.92;85.05
6393;BME280;3229;42.674;23.282;2023-06-26T04:43:58;94438.50;;;23.06;84.82
6393;BME280;3229;42.674;23.282;2023-06-26T04:46:25;94433.91;;;23.19;84.38
6393;BME280;3229;42.674;23.282;2023-06-26T04:48:53;94433.63;;;23.39;83.76
6393;BME280;3229;42.674;23.282;2023-06-26T04:51:21;94438.78;;;23.58;82.55
6393;BME280;3229;42.674;23.282;2023-06-26T04:53:48;94438.25;;;23.79;81.68
6393;BME280;3229;42.674;23.282;2023-06-26T04:56:15;94438.38;;;23.96;80.88
6393;BME280;3229;42.674;23.282;2023-06-26T04:58:41;94432.38;;;24.07;80.01
6393;BME280;3229;42.674;23.282;2023-06-26T05:01:08;94429.53;;;24.09;79.52
6393;BME280;3229;42.674;23.282;2023-06-26T05:03:35;94426.13;;;24.08;79.14
6393;BME280;3229;42.674;23.282;2023-06-26T05:06:02;94437.25;;;24.15;79.72
6393;BME280;3229;42.674;23.282;2023-06-26T05:08:30;94434.84;;;24.25;78.82
6393;BME280;3229;42.674;23.282;2023-06-26T05:10:57;94439.19;;;24.32;76.47
6393;BME280;3229;42.674;23.282;2023-06-26T05:13:24;94442.16;;;24.23;77.53
6393;BME280;3229;42.674;23.282;2023-06-26T05:15:52;94443.84;;;24.29;77.98
6393;BME280;3229;42.674;23.282;2023-06-26T05:18:19;94449.09;;;24.41;76.69
6393;BME280;3229;42.674;23.282;2023-06-26T05:20:46;94444.41;;;24.55;76.55
6393;BME280;3229;42.674;23.282;2023-06-26T05:23:14;94442.56;;;24.67;76.08
6393;BME280;3229;42.674;23.282;2023-06-26T05:25:44;94422.78;;;24.60;76.41
6393;BME280;3229;42.674;23.282;2023-06-26T05:28:11;94455.28;;;24.75;76.12
6393;BME280;3229;42.674;23.282;2023-06-26T05:30:41;94449.72;;;24.60;76.34
6393;BME280;3229;42.674;23.282;2023-06-26T05:33:09;94458.16;;;24.62;75.60
6393;BME280;3229;42.674;23.282;2023-06-26T05:35:37;94456.25;;;24.46;76.01
6393;BME280;3229;42.674;23.282;2023-06-26T05:38:04;94457.50;;;24.32;75.81
6393;BME280;3229;42.674;23.282;2023-06-26T05:40:31;94464.63;;;24.13;77.45
6393;BME280;3229;42.674;23.282;2023-06-26T05:43:01;94465.66;;;24.00;78.38
6393;BME280;3229;42.674;23.282;2023-06-26T05:45:28;94454.06;;;23.96;78.09
6393;BME280;3229;42.674;23.282;2023-06-26T05:47:55;94462.03;;;23.89;78.02
6393;BME280;3229;42.674;23.282;2023-06-26T05:50:22;94458.50;;;23.84;79.16
6393;BME280;3229;42.674;23.282;2023-06-26T05:52:50;94453.59;;;23.87;78.53
6393;BME280;3229;42.674;23.282;2023-06-26T05:55:18;94461.44;;;23.99;78.86
6393;BME280;3229;42.674;23.282;2023-06-26T05:57:45;94464.41;;;24.14;77.64
6393;BME280;3229;42.674;23.282;2023-06-26T06:00:14;94460.00;;;24.38;75.35
6393;BME280;3229;42.674;23.282;2023-06-26T06:02:42;94457.28;;;24.45;75.26
6393;BME280;3229;42.674;23.282;2023-06-26T06:05:09;94472.38;;;24.66;74.41
6393;BME280;3229;42.674;23.282;2023-06-26T06:07:36;94433.25;;;24.60;75.25
6393;BME280;3229;42.674;23.282;2023-06-26T06:10:04;94469.41;;;25.03;74.52
6393;BME280;3229;42.674;23.282;2023-06-26T06:12:31;94470.28;;;25.20;73.01
6393;BME280;3229;42.674;23.282;2023-06-26T06:14:57;94462.06;;;25.28;72.87
6393;BME280;3229;42.674;23.282;2023-06-26T06:17:26;94460.03;;;25.47;72.19
6393;BME280;3229;42.674;23.282;2023-06-26T06:19:52;94465.28;;;25.64;70.89
6393;BME280;3229;42.674;23.282;2023-06-26T06:22:19;94466.09;;;25.65;70.21
6393;BME280;3229;42.674;23.282;2023-06-26T06:24:48;94462.66;;;25.64;69.92
6393;BME280;3229;42.674;23.282;2023-06-26T06:27:15;94462.38;;;25.61;70.61
6393;BME280;3229;42.674;23.282;2023-06-26T06:29:41;94456.88;;;25.62;69.47
6393;BME280;3229;42.674;23.282;2023-06-26T06:32:09;94457.13;;;25.61;70.08
6393;BME280;3229;42.674;23.282;2023-06-26T06:34:37;94460.28;;;25.63;70.58
6393;BME280;3229;42.674;23.282;2023-06-26T06:37:04;94449.81;;;25.63;70.21
6393;BME280;3229;42.674;23.282;2023-06-26T06:39:30;94451.97;;;25.66;70.93
6393;BME280;3229;42.674;23.282;2023-06-26T06:41:57;94449.38;;;25.83;70.56
6393;BME280;3229;42.674;23.282;2023-06-26T06:44:24;94455.03;;;26.08;69.68
6393;BME280;3229;42.674;23.282;2023-06-26T06:46:51;94450.06;;;26.45;68.05
6393;BME280;3229;42.674;23.282;2023-06-26T06:49:18;94457.88;;;26.84;66.95
6393;BME280;3229;42.674;23.282;2023-06-26T06:51:46;94454.00;;;27.36;64.38
6393;BME280;3229;42.674;23.282;2023-06-26T06:54:15;94463.31;;;27.75;62.83
6393;BME280;3229;42.674;23.282;2023-06-26T06:56:42;94446.13;;;27.95;62.26
6393;BME280;3229;42.674;23.282;2023-06-26T06:59:09;94453.16;;;28.21;60.59
6393;BME280;3229;42.674;23.282;2023-06-26T07:01:36;94451.69;;;28.41;60.49
6393;BME280;3229;42.674;23.282;2023-06-26T07:04:03;94451.03;;;28.61;58.55
6393;BME280;3229;42.674;23.282;2023-06-26T07:06:30;94454.25;;;28.73;57.28
6393;BME280;3229;42.674;23.282;2023-06-26T07:08:58;94444.78;;;28.77;56.80
6393;BME280;3229;42.674;23.282;2023-06-26T07:11:25;94456.09;;;28.72;56.67
6393;BME280;3229;42.674;23.282;2023-06-26T07:13:52;94453.00;;;28.91;57.80
6393;BME280;3229;42.674;23.282;2023-06-26T07:16:19;94449.72;;;29.31;56.03
6393;BME280;3229;42.674;23.282;2023-06-26T07:18:46;94452.63;;;29.35;55.93
6393;BME280;3229;42.674;23.282;2023-06-26T07:21:14;94451.00;;;29.18;56.53
6393;BME280;3229;42.674;23.282;2023-06-26T07:23:41;94449.41;;;29.07;57.39
6393;BME280;3229;42.674;23.282;2023-06-26T07:26:09;94442.28;;;29.08;56.50
6393;BME280;3229;42.674;23.282;2023-06-26T07:28:36;94448.63;;;29.17;56.31
6393;BME280;3229;42.674;23.282;2023-06-26T07:31:03;94450.53;;;29.37;56.39
6393;BME280;3229;42.674;23.282;2023-06-26T07:33:29;94446.34;;;29.56;55.95
6393;BME280;3229;42.674;23.282;2023-06-26T07:35:56;94447.69;;;29.79;53.80
6393;BME280;3229;42.674;23.282;2023-06-26T07:38:23;94441.09;;;29.77;52.89
6393;BME280;3229;42.674;23.282;2023-06-26T07:40:50;94446.91;;;29.89;52.55
6393;BME280;3229;42.674;23.282;2023-06-26T07:43:18;94442.94;;;30.02;53.09
6393;BME280;3229;42.674;23.282;2023-06-26T07:45:45;94441.88;;;30.18;53.57
6393;BME280;3229;42.674;23.282;2023-06-26T07:48:11;94440.06;;;30.18;52.82
6393;BME280;3229;42.674;23.282;2023-06-26T07:50:38;94453.22;;;30.08;52.73
6393;BME280;3229;42.674;23.282;2023-06-26T07:53:05;94453.47;;;30.12;53.03
6393;BME280;3229;42.674;23.282;2023-06-26T07:55:32;94452.97;;;30.10;52.51
6393;BME280;3229;42.674;23.282;2023-06-26T07:57:58;94451.63;;;29.92;53.13
6393;BME280;3229;42.674;23.282;2023-06-26T08:00:28;94456.38;;;29.74;52.94
6393;BME280;3229;42.674;23.282;2023-06-26T08:02:55;94451.09;;;29.69;52.10
6393;BME280;3229;42.674;23.282;2023-06-26T08:05:22;94451.13;;;29.90;52.26
6393;BME280;3229;42.674;23.282;2023-06-26T08:07:48;94456.13;;;30.17;51.06
6393;BME280;3229;42.674;23.282;2023-06-26T08:10:15;94452.94;;;30.05;50.33
6393;BME280;3229;42.674;23.282;2023-06-26T08:12:42;94452.41;;;29.62;51.51
6393;BME280;3229;42.674;23.282;2023-06-26T08:15:10;94431.25;;;29.21;53.13
6393;BME280;3229;42.674;23.282;2023-06-26T08:17:39;94450.53;;;29.42;53.56
6393;BME280;3229;42.674;23.282;2023-06-26T08:20:07;94446.91;;;29.58;53.57
6393;BME280;3229;42.674;23.282;2023-06-26T08:22:34;94440.03;;;29.72;52.72
6393;BME280;3229;42.674;23.282;2023-06-26T08:25:02;94458.22;;;29.74;52.48
6393;BME280;3229;42.674;23.282;2023-06-26T08:27:31;94451.59;;;29.51;53.10
6393;BME280;3229;42.674;23.282;2023-06-26T08:29:58;94448.69;;;29.47;53.08
6393;BME280;3229;42.674;23.282;2023-06-26T08:32:25;94455.59;;;29.64;52.82
6393;BME280;3229;42.674;23.282;2023-06-26T08:34:53;94444.78;;;29.81;51.61
6393;BME280;3229;42.674;23.282;2023-06-26T08:37:20;94452.19;;;29.84;51.98
6393;BME280;3229;42.674;23.282;2023-06-26T08:39:48;94451.63;;;30.07;49.54
6393;BME280;3229;42.674;23.282;2023-06-26T08:42:15;94445.31;;;30.03;49.75
6393;BME280;3229;42.674;23.282;2023-06-26T08:44:41;94448.22;;;30.07;50.09
6393;BME280;3229;42.674;23.282;2023-06-26T08:47:11;94447.41;;;30.37;49.14
6393;BME280;3229;42.674;23.282;2023-06-26T08:49:46;94447.34;;;30.57;48.62
6393;BME280;3229;42.674;23.282;2023-06-26T08:52:18;94457.34;;;30.65;48.62
6393;BME280;3229;42.674;23.282;2023-06-26T08:54:52;94448.63;;;30.65;48.93
6393;BME280;3229;42.674;23.282;2023-06-26T08:57:22;94440.72;;;30.75;48.01
6393;BME280;3229;42.674;23.282;2023-06-26T08:59:50;94446.78;;;30.70;49.12
6393;BME280;3229;42.674;23.282;2023-06-26T09:02:18;94453.13;;;30.64;49.37
6393;BME280;3229;42.674;23.282;2023-06-26T09:04:47;94447.63;;;30.51;48.99
6393;BME280;3229;42.674;23.282;2023-06-26T09:07:16;94457.97;;;30.32;49.85
6393;BME280;3229;42.674;23.282;2023-06-26T09:09:43;94449.75;;;30.48;50.39
6393;BME280;3229;42.674;23.282;2023-06-26T09:12:10;94444.75;;;30.42;50.61
6393;BME280;3229;42.674;23.282;2023-06-26T09:14:37;94447.16;;;30.28;49.84
6393;BME280;3229;42.674;23.282;2023-06-26T09:17:04;94416.56;;;29.81;49.49
6393;BME280;3229;42.674;23.282;2023-06-26T09:19:31;94446.09;;;29.78;48.72
6393;BME280;3229;42.674;23.282;2023-06-26T09:21:58;94453.69;;;29.44;49.68
6393;BME280;3229;42.674;23.282;2023-06-26T09:24:26;94449.97;;;29.24;50.58
6393;BME280;3229;42.674;23.282;2023-06-26T09:26:53;94444.69;;;29.19;51.33
6393;BME280;3229;42.674;23.282;2023-06-26T09:29:20;94452.06;;;29.17;51.81
6393;BME280;3229;42.674;23.282;2023-06-26T09:31:47;94411.97;;;29.05;52.79
6393;BME280;3229;42.674;23.282;2023-06-26T09:34:14;94436.28;;;29.48;51.87
6393;BME280;3229;42.674;23.282;2023-06-26T09:36:40;94435.81;;;29.56;51.17
6393;BME280;3229;42.674;23.282;2023-06-26T09:39:11;94445.59;;;29.76;50.12
6393;BME280;3229;42.674;23.282;2023-06-26T09:41:42;94445.59;;;29.71;48.91
6393;BME280;3229;42.674;23.282;2023-06-26T09:44:11;94443.19;;;29.59;49.57
6393;BME280;3229;42.674;23.282;2023-06-26T09:46:39;94420.72;;;29.31;49.45
6393;BME280;3229;42.674;23.282;2023-06-26T09:49:07;94439.72;;;29.33;50.14
6393;BME280;3229;42.674;23.282;2023-06-26T09:51:35;94441.84;;;29.46;48.46
6393;BME280;3229;42.674;23.282;2023-06-26T09:54:03;94423.63;;;29.30;47.79
6393;BME280;3229;42.674;23.282;2023-06-26T09:56:31;94432.31;;;29.25;48.93
6393;BME280;3229;42.674;23.282;2023-06-26T09:59:00;94438.38;;;29.25;48.69
6393;BME280;3229;42.674;23.282;2023-06-26T10:01:28;94439.47;;;29.45;49.09
6393;BME280;3229;42.674;23.282;2023-06-26T10:03:55;94441.31;;;29.55;49.13
6393;BME280;3229;42.674;23.282;2023-06-26T10:06:28;94423.44;;;29.77;48.92
6393;BME280;3229;42.674;23.282;2023-06-26T10:08:56;94430.78;;;30.00;46.90
6393;BME280;3229;42.674;23.282;2023-06-26T10:11:25;94434.25;;;30.01;46.10
6393;BME280;3229;42.674;23.282;2023-06-26T10:13:55;94431.59;;;29.96;46.37
6393;BME280;3229;42.674;23.282;2023-06-26T10:16:26;94422.09;;;30.10;48.29
6393;BME280;3229;42.674;23.282;2023-06-26T10:19:00;94424.69;;;30.31;47.10
6393;BME280;3229;42.674;23.282;2023-06-26T10:21:29;94423.88;;;30.45;47.61
6393;BME280;3229;42.674;23.282;2023-06-26T10:23:56;94434.44;;;30.51;46.09
6393;BME280;3229;42.674;23.282;2023-06-26T10:26:24;94438.19;;;30.24;46.93
6393;BME280;3229;42.674;23.282;2023-06-26T10:28:52;94399.94;;;29.91;46.76
6393;BME280;3229;42.674;23.282;2023-06-26T10:31:25;94433.44;;;29.90;47.14
6393;BME280;3229;42.674;23.282;2023-06-26T10:33:54;94420.81;;;29.77;46.03
6393;BME280;3229;42.674;23.282;2023-06-26T10:36:28;94436.03;;;29.39;45.84
6393;BME280;3229;42.674;23.282;2023-06-26T10:38:57;94428.31;;;29.02;47.12
6393;BME280;3229;42.674;23.282;2023-06-26T10:41:24;94432.44;;;28.88;47.84
6393;BME280;3229;42.674;23.282;2023-06-26T10:44:06;94425.88;;;28.85;47.78
6393;BME280;3229;42.674;23.282;2023-06-26T10:46:33;94428.44;;;28.75;48.52
6393;BME280;3229;42.674;23.282;2023-06-26T10:49:02;94408.63;;;28.57;48.68
6393;BME280;3229;42.674;23.282;2023-06-26T10:51:29;94431.63;;;28.77;48.65
6393;BME280;3229;42.674;23.282;2023-06-26T10:53:56;94428.22;;;28.82;49.03
6393;BME280;3229;42.674;23.282;2023-06-26T10:56:41;94419.78;;;28.80;49.17
6393;BME280;3229;42.674;23.282;2023-06-26T10:59:17;94423.75;;;28.87;49.93
6393;BME280;3229;42.674;23.282;2023-06-26T11:01:45;94420.09;;;28.93;50.12
6393;BME280;3229;42.674;23.282;2023-06-26T11:04:14;94412.53;;;29.12;49.40
6393;BME280;3229;42.674;23.282;2023-06-26T11:06:45;94419.91;;;29.10;47.97
6393;BME280;3229;42.674;23.282;2023-06-26T11:09:23;94417.50;;;28.98;48.58
6393;BME280;3229;42.674;23.282;2023-06-26T11:11:58;94408.56;;;29.05;48.22
6393;BME280;3229;42.674;23.282;2023-06-26T11:14:27;94411.69;;;28.96;47.95
6393;BME280;3229;42.674;23.282;2023-06-26T11:16:55;94418.47;;;28.77;48.28
6393;BME280;3229;42.674;23.282;2023-06-26T11:19:25;94426.31;;;28.67;48.76
6393;BME280;3229;42.674;23.282;2023-06-26T11:21:58;94411.81;;;28.54;49.19
6393;BME280;3229;42.674;23.282;2023-06-26T11:24:26;94415.94;;;28.45;49.19
6393;BME280;3229;42.674;23.282;2023-06-26T11:26:53;94404.31;;;28.36;48.85
6393;BME280;3229;42.674;23.282;2023-06-26T11:29:20;94409.88;;;28.39;49.49
6393;BME280;3229;42.674;23.282;2023-06-26T11:31:47;94409.03;;;28.34;48.99
6393;BME280;3229;42.674;23.282;2023-06-26T11:34:13;94408.19;;;28.28;49.70
6393;BME280;3229;42.674;23.282;2023-06-26T11:36:43;94412.72;;;28.33;48.71
6393;BME280;3229;42.674;23.282;2023-06-26T11:39:12;94406.59;;;28.22;49.38
6393;BME280;3229;42.674;23.282;2023-06-26T11:41:40;94414.66;;;28.10;50.16
6393;BME280;3229;42.674;23.282;2023-06-26T11:44:07;94412.56;;;28.07;49.66
6393;BME280;3229;42.674;23.282;2023-06-26T11:46:35;94408.31;;;28.01;50.42
6393;BME280;3229;42.674;23.282;2023-06-26T11:49:03;94412.31;;;28.09;51.00
6393;BME280;3229;42.674;23.282;2023-06-26T11:51:30;94402.31;;;28.11;49.72
6393;BME280;3229;42.674;23.282;2023-06-26T11:54:01;94379.63;;;27.94;50.75
6393;BME280;3229;42.674;23.282;2023-06-26T11:56:28;94405.00;;;28.16;50.70
6393;BME280;3229;42.674;23.282;2023-06-26T11:58:55;94399.81;;;28.31;50.86
6393;BME280;3229;42.674;23.282;2023-06-26T12:01:23;94405.72;;;28.48;50.62
6393;BME280;3229;42.674;23.282;2023-06-26T12:03:50;94388.34;;;28.53;50.48
6393;BME280;3229;42.674;23.282;2023-06-26T12:06:17;94396.31;;;28.63;49.95
6393;BME280;3229;42.674;23.282;2023-06-26T12:08:44;94398.13;;;28.57;48.50
6393;BME280;3229;42.674;23.282;2023-06-26T12:11:14;94395.72;;;28.45;49.13
6393;BME280;3229;42.674;23.282;2023-06-26T12:13:41;94396.25;;;28.47;49.62
6393;BME280;3229;42.674;23.282;2023-06-26T12:16:10;94396.53;;;28.51;49.66
6393;BME280;3229;42.674;23.282;2023-06-26T12:18:37;94398.88;;;28.53;50.47
6393;BME280;3229;42.674;23.282;2023-06-26T12:21:05;94401.56;;;28.63;49.97
6393;BME280;3229;42.674;23.282;2023-06-26T12:23:32;94396.34;;;28.73;48.45
6393;BME280;3229;42.674;23.282;2023-06-26T12:29:01;94386.81;;;28.57;49.99
6393;BME280;3229;42.674;23.282;2023-06-26T12:31:28;94393.69;;;28.68;49.48
6393;BME280;3229;42.674;23.282;2023-06-26T12:33:55;94382.03;;;28.54;48.41
6393;BME280;3229;42.674;23.282;2023-06-26T12:36:22;94397.06;;;28.58;48.90
6393;BME280;3229;42.674;23.282;2023-06-26T12:38:49;94395.19;;;28.54;49.38
6393;BME280;3229;42.674;23.282;2023-06-26T12:41:16;94398.38;;;28.50;49.65
6393;BME280;3229;42.674;23.282;2023-06-26T12:43:43;94380.94;;;28.39;49.96
6393;BME280;3229;42.674;23.282;2023-06-26T12:46:11;94404.41;;;28.46;50.63
6393;BME280;3229;42.674;23.282;2023-06-26T12:48:39;94399.09;;;28.41;50.78
6393;BME280;3229;42.674;23.282;2023-06-26T12:51:10;94392.19;;;28.35;50.65
6393;BME280;3229;42.674;23.282;2023-06-26T12:53:37;94391.59;;;28.22;51.67
6393;BME280;3229;42.674;23.282;2023-06-26T12:56:05;94400.84;;;28.25;51.04
6393;BME280;3229;42.674;23.282;2023-06-26T12:58:32;94397.56;;;28.03;51.50
6393;BME280;3229;42.674;23.282;2023-06-26T13:00:59;94337.66;;;27.35;52.82
6393;BME280;3229;42.674;23.282;2023-06-26T13:03:28;94389.09;;;27.63;53.62
6393;BME280;3229;42.674;23.282;2023-06-26T13:05:54;94396.13;;;27.58;54.21
6393;BME280;3229;42.674;23.282;2023-06-26T13:08:21;94394.53;;;27.51;54.58
6393;BME280;3229;42.674;23.282;2023-06-26T13:10:48;94396.88;;;27.53;54.67
6393;BME280;3229;42.674;23.282;2023-06-26T13:13:15;94386.66;;;27.51;55.23
6393;BME280;3229;42.674;23.282;2023-06-26T13:15:41;94398.66;;;27.42;54.78
6393;BME280;3229;42.674;23.282;2023-06-26T13:18:08;94395.72;;;27.39;55.11